createdAt,value
2019-04-05T00:05:03.140Z,7.6
2019-04-05T00:10:08.357Z,7.8
2019-04-05T00:15:16.624Z,8
2019-04-05T00:20:22.060Z,7.4
2019-04-05T00:25:27.536Z,8.2
2019-04-05T00:30:32.659Z,8.4
2019-04-05T00:35:37.723Z,7.9
2019-04-05T00:40:42.872Z,7.6
2019-04-05T00:45:47.906Z,7.9
2019-04-05T00:50:53.502Z,8
2019-04-05T00:55:59.439Z,7.7
2019-04-05T01:01:04.614Z,7.4
2019-04-05T01:06:09.775Z,7.9
2019-04-05T01:11:14.966Z,7.6
2019-04-05T01:16:20.105Z,7
2019-04-05T01:21:25.303Z,7.1
2019-04-05T01:26:30.237Z,6.8
2019-04-05T01:31:35.449Z,7.2
2019-04-05T01:36:40.387Z,6.6
2019-04-05T01:41:45.707Z,6.3
2019-04-05T01:46:50.775Z,6.2
2019-04-05T01:51:55.954Z,6.4
2019-04-05T01:57:01.362Z,6.4
2019-04-05T02:02:05.482Z,6.3
2019-04-05T02:07:10.546Z,6.8
2019-04-05T02:12:15.739Z,6.1
2019-04-05T02:17:20.931Z,6.2
2019-04-05T02:22:26.145Z,6.2
2019-04-05T02:27:31.330Z,5.9
2019-04-05T02:32:36.648Z,6.4
2019-04-05T02:37:41.855Z,6.3
2019-04-05T02:42:47.162Z,6.4
2019-04-05T02:47:52.725Z,6.5
2019-04-05T02:52:57.457Z,6.3
2019-04-05T02:58:02.847Z,5.9
2019-04-05T03:03:08.007Z,6.2
2019-04-05T03:08:11.658Z,6.1
2019-04-05T03:13:17.179Z,6
2019-04-05T03:18:20.786Z,6.2
2019-04-05T03:23:26.052Z,5.8
2019-04-05T03:28:31.408Z,5.9
2019-04-05T03:33:36.779Z,6.1
2019-04-05T03:38:41.964Z,6.1
2019-04-05T03:43:47.044Z,6.5
2019-04-05T03:48:52.030Z,6.6
2019-04-05T03:53:57.608Z,7.4
2019-04-05T03:59:02.698Z,7.3
2019-04-05T04:04:07.876Z,7.8
2019-04-05T04:09:17.903Z,7.2
2019-04-05T04:14:23.537Z,7.3
2019-04-05T04:19:28.718Z,7
2019-04-05T04:24:33.943Z,6.6
2019-04-05T04:29:37.910Z,7.3
2019-04-05T04:34:43.353Z,6.7
2019-04-05T04:39:48.474Z,6.9
2019-04-05T04:44:56.545Z,7.2
2019-04-05T04:49:56.525Z,7.2
2019-04-05T04:55:01.496Z,7.3
2019-04-05T05:00:07.450Z,7.2
2019-04-05T05:05:11.220Z,6.9
2019-04-05T05:10:16.101Z,7.2
2019-04-05T05:15:19.813Z,7.9
2019-04-05T05:20:24.879Z,7.6
2019-04-05T05:25:30.205Z,7.5
2019-04-05T05:30:35.319Z,6.8
2019-04-05T05:35:40.582Z,7.5
2019-04-05T05:40:45.514Z,7.2
2019-04-05T05:45:50.896Z,6.8
2019-04-05T05:50:56.201Z,8
2019-04-05T05:56:01.711Z,8
2019-04-05T06:01:07.052Z,7.2
2019-04-05T06:06:12.460Z,7.5
2019-04-05T06:11:17.783Z,7.3
2019-04-05T06:16:21.346Z,7.6
2019-04-05T06:21:26.334Z,7.1
2019-04-05T06:26:31.720Z,7.1
2019-04-05T06:31:35.667Z,6.6
2019-04-05T06:36:40.758Z,6.6
2019-04-05T06:41:45.750Z,6.7
2019-04-05T06:46:51.299Z,6
2019-04-05T06:51:55.148Z,6.4
2019-04-05T06:56:59.273Z,6.4
2019-04-05T07:02:04.507Z,6.9
2019-04-05T07:07:10.001Z,7.2
2019-04-05T07:12:13.585Z,6.3
2019-04-05T07:17:18.759Z,7.1
2019-04-05T07:22:39.508Z,6.5
2019-04-05T07:27:23.828Z,6.9
2019-04-05T07:32:32.018Z,7.1
2019-04-05T07:37:37.767Z,7.8
2019-04-05T07:42:43.345Z,8.1
2019-04-05T07:47:48.471Z,7.6
2019-04-05T07:52:52.101Z,7.8
2019-04-05T07:57:57.116Z,8.1
2019-04-05T08:03:02.224Z,8.3
2019-04-05T08:08:07.305Z,7.7
2019-04-05T08:13:13.544Z,7.4
2019-04-05T08:18:18.760Z,7.6
2019-04-05T08:23:22.419Z,8.1
2019-04-05T08:28:30.422Z,7.9
2019-04-05T08:33:37.463Z,8.3
2019-04-05T08:38:42.774Z,7.6
2019-04-05T08:43:48.230Z,7.9
2019-04-05T08:48:53.554Z,8.1
2019-04-05T08:53:57.174Z,7.7
2019-04-05T08:59:02.430Z,7.4
2019-04-05T09:04:07.787Z,7.8
2019-04-05T09:09:12.764Z,7.5
2019-04-05T09:14:20.558Z,7.8
2019-04-05T09:19:26.330Z,7.8
2019-04-05T09:24:29.663Z,7.2
2019-04-05T09:29:34.904Z,7.2
2019-04-05T09:34:40.067Z,7.3
2019-04-05T09:39:45.614Z,7.5
2019-04-05T09:44:53.749Z,7.6
2019-04-05T09:49:51.120Z,7.5
2019-04-05T09:54:55.914Z,6.4
2019-04-05T10:00:01.233Z,7
2019-04-05T10:05:05.687Z,6.1
2019-04-05T10:10:11.210Z,6.8
2019-04-05T10:15:16.249Z,6.6
2019-04-05T10:20:20.069Z,6.6
2019-04-05T10:25:25.177Z,6.6
2019-04-05T10:30:30.818Z,6.8
2019-04-05T10:35:36.093Z,6.4
2019-04-05T10:40:41.383Z,7.1
2019-04-05T10:45:46.415Z,7.1
2019-04-05T10:50:54.616Z,7.3
2019-04-05T10:55:59.927Z,7.4
2019-04-05T11:01:05.259Z,7.9
2019-04-05T11:06:10.419Z,7.1
2019-04-05T11:11:15.987Z,6.9
2019-04-05T11:16:21.022Z,6.3
2019-04-05T11:21:26.104Z,6.3
2019-04-05T11:26:31.182Z,6.4
2019-04-05T11:31:36.472Z,6.5
2019-04-05T11:36:41.509Z,6
2019-04-05T11:41:46.625Z,7.2
2019-04-05T11:46:51.996Z,6.1
2019-04-05T11:51:57.244Z,6
2019-04-05T11:57:02.260Z,6.2
2019-04-05T12:02:07.601Z,5.9
2019-04-05T12:07:13.163Z,6
2019-04-05T12:12:18.300Z,6.2
2019-04-05T12:17:23.549Z,6.2
2019-04-05T12:22:30.151Z,5.6
2019-04-05T12:27:39.008Z,5.7
2019-04-05T12:32:46.495Z,5.6
2019-04-05T12:37:55.422Z,5.7
2019-04-05T12:42:53.919Z,5.8
2019-04-05T12:48:00.154Z,5.8
2019-04-05T12:53:05.627Z,5.8
2019-04-05T12:58:10.887Z,5.8
2019-04-05T13:03:15.930Z,5.8
2019-04-05T13:08:24.530Z,6.2
2019-04-05T13:13:30.132Z,5.8
2019-04-05T13:18:35.082Z,5.9
2019-04-05T13:23:40.109Z,5.6
2019-04-05T13:28:40.233Z,6
2019-04-05T13:33:45.135Z,6.1
2019-04-05T13:38:59.395Z,7.1
2019-04-05T13:43:55.163Z,6.8
2019-04-05T13:49:00.478Z,5.9
2019-04-05T13:54:05.726Z,6.8
2019-04-05T13:59:14.298Z,8
2019-04-05T14:04:22.017Z,8.4
2019-04-05T14:09:27.351Z,8.4
2019-04-05T14:14:35.480Z,7.2
2019-04-05T14:19:40.587Z,7
2019-04-05T14:24:45.721Z,6.6
2019-04-05T14:29:51.023Z,6.5
2019-04-05T14:34:56.554Z,6.5
2019-04-05T14:40:02.101Z,7.2
2019-04-05T14:45:07.046Z,6.3
2019-04-05T14:50:12.252Z,6.7
2019-04-05T14:55:20.387Z,6.3
2019-04-05T15:00:25.563Z,6.4
2019-04-05T15:05:31.232Z,6.5
2019-04-05T15:10:39.084Z,6.9
2019-04-05T15:15:44.506Z,6.8
2019-04-05T15:20:50.084Z,6.4
2019-04-05T15:25:55.095Z,6.5
2019-04-05T15:31:00.380Z,7.2
2019-04-05T15:36:05.674Z,7.1
2019-04-05T15:41:11.014Z,7.1
2019-04-05T15:46:16.181Z,7.2
2019-04-05T15:51:22.507Z,6.4
2019-04-05T15:56:34.263Z,6.7
2019-04-05T16:01:39.748Z,7.3
2019-04-05T16:06:44.012Z,6.9
2019-04-05T16:11:50.934Z,6.8
2019-04-05T16:16:56.035Z,8.2
2019-04-05T16:22:01.268Z,7.4
2019-04-05T16:27:06.551Z,7.5
2019-04-05T16:32:12.045Z,7.6
2019-04-05T16:37:17.248Z,7.3
2019-04-05T16:42:22.293Z,8.2
2019-04-05T16:47:28.781Z,7.5
2019-04-05T16:52:45.561Z,8.1
2019-04-05T16:57:40.859Z,8.1
2019-04-05T17:02:46.029Z,8.9
2019-04-05T17:07:49.829Z,8.6
2019-04-05T17:12:54.693Z,8.9
2019-04-05T17:18:00.230Z,8.7
2019-04-05T17:23:05.393Z,8.6
2019-04-05T17:28:10.938Z,9.1
2019-04-05T17:33:16.239Z,9.2
2019-04-05T17:38:21.289Z,10.1
2019-04-05T17:43:26.466Z,10.2
2019-04-05T17:48:31.546Z,11.2
2019-04-05T17:53:36.536Z,11.1
2019-04-05T17:58:41.834Z,10.5
2019-04-05T18:03:47.044Z,10.1
2019-04-05T18:08:52.094Z,10.3
2019-04-05T18:13:57.304Z,10.5
2019-04-05T18:19:02.227Z,10.4
2019-04-05T18:24:07.123Z,10.5
2019-04-05T18:29:12.453Z,10.7
2019-04-05T18:34:17.333Z,10
2019-04-05T18:39:22.451Z,10.1
2019-04-05T18:44:27.482Z,10.1
2019-04-05T18:49:32.533Z,9.8
2019-04-05T18:54:37.656Z,10.1
2019-04-05T18:59:41.395Z,9.6
2019-04-05T19:04:46.646Z,10.1
2019-04-05T19:09:54.592Z,10.8
2019-04-05T19:14:59.775Z,11.3
2019-04-05T19:20:05.783Z,11.4
2019-04-05T19:25:11.143Z,11.8
2019-04-05T19:50:40.064Z,7
2019-04-05T19:55:43.424Z,5.9
2019-04-05T20:00:48.617Z,4.8
2019-04-05T20:05:53.737Z,3.9
2019-04-05T20:10:58.965Z,3.9
2019-04-05T20:16:04.139Z,3.7
2019-04-05T20:21:09.415Z,3
2019-04-05T20:26:17.301Z,3.5
2019-04-05T20:31:22.352Z,3.2
2019-04-05T20:36:27.036Z,3
2019-04-05T20:41:31.868Z,2.9
2019-04-05T20:46:37.241Z,2.7
2019-04-05T20:51:42.531Z,3.3
2019-04-05T20:56:47.686Z,3.4
2019-04-05T21:01:52.750Z,3.9
2019-04-05T21:06:57.958Z,3.1
2019-04-05T21:12:03.138Z,3.4
2019-04-05T21:17:08.692Z,3.8
2019-04-05T21:22:14.161Z,3.9
2019-04-05T21:27:19.723Z,3.7
2019-04-05T21:32:24.843Z,3.2
2019-04-05T21:37:30.257Z,4.1
2019-04-05T21:42:35.411Z,3.8
2019-04-05T21:47:40.666Z,3.2
2019-04-05T21:52:45.867Z,4.4
2019-04-05T21:57:50.367Z,3.6
2019-04-05T22:02:54.286Z,3.1
2019-04-05T22:07:59.755Z,3
2019-04-05T22:13:05.327Z,3.3
2019-04-05T22:18:10.681Z,3.2
2019-04-05T22:23:15.728Z,7.4
2019-04-05T22:28:20.930Z,4.2
2019-04-05T22:33:26.045Z,2.6
2019-04-05T22:38:31.510Z,3.7
2019-04-05T22:43:36.676Z,2.8
2019-04-05T22:48:42.118Z,2.3
2019-04-05T22:53:47.045Z,2.8
2019-04-05T23:03:58.313Z,3.1
2019-04-05T23:09:03.987Z,2.5
2019-04-05T23:14:09.031Z,2.9
2019-04-05T23:19:12.737Z,2.4
2019-04-05T23:24:17.946Z,2.8
2019-04-05T23:29:25.963Z,2.6
2019-04-05T23:34:31.085Z,2.6
2019-04-05T23:39:36.189Z,2.9
2019-04-05T23:44:41.374Z,3.3
2019-04-05T23:49:46.570Z,2.6
2019-04-05T23:54:51.740Z,2.6
2019-04-05T23:59:57.019Z,3
